Summersville, Missouri
Current Conditions -  °F | °C
As of 1:53 AM on Sunday 21 Dec 2014 (Local Time) from KUNO Reporting Station
Overcast Overcast  
Wind Chill: 34°   Ceiling: 2400
Heat Index: 39°   Visibility: 8mi
Dew Point: 34°   Wind: 7mph
Humidity: 82%   Direction: 150°SSE
Pressure: 30.2"   Gusts: NA
Location:  37.18°N, 91.66°W
Report Text: KUNO 210753Z AUTO 15006KT 8SM OVC024 04/01 A3020 RMK AO2 SLP229 T00390011 $
Loading
Personal Weather Stations






























Interactive Weather Map New forecast layout! Learn more

10-Day Weather Forecast

Advertisements
Track Severe Weather on mobile